sensor_id;sensor_type;location;lat;lon;timestamp;temperature;humidity
22633;DHT22;11483;55.828;37.488;2022-07-11T00:00:01;20.50;99.90
22633;DHT22;11483;55.828;37.488;2022-07-11T00:02:27;20.50;99.90
22633;DHT22;11483;55.828;37.488;2022-07-11T00:04:53;20.50;99.90
22633;DHT22;11483;55.828;37.488;2022-07-11T00:07:19;20.50;99.90
22633;DHT22;11483;55.828;37.488;2022-07-11T00:09:46;20.60;99.90
22633;DHT22;11483;55.828;37.488;2022-07-11T00:12:12;20.60;99.90
22633;DHT22;11483;55.828;37.488;2022-07-11T00:14:39;20.60;99.90
22633;DHT22;11483;55.828;37.488;2022-07-11T00:17:06;20.70;99.90
22633;DHT22;11483;55.828;37.488;2022-07-11T00:19:34;20.80;99.90
22633;DHT22;11483;55.828;37.488;2022-07-11T00:22:00;20.70;99.90
22633;DHT22;11483;55.828;37.488;2022-07-11T00:24:26;20.80;99.90
22633;DHT22;11483;55.828;37.488;2022-07-11T00:26:52;20.80;99.90
22633;DHT22;11483;55.828;37.488;2022-07-11T00:29:18;20.90;99.90
22633;DHT22;11483;55.828;37.488;2022-07-11T00:31:44;21.00;99.90
22633;DHT22;11483;55.828;37.488;2022-07-11T00:34:10;21.00;99.90
22633;DHT22;11483;55.828;37.488;2022-07-11T00:36:36;21.00;99.90
22633;DHT22;11483;55.828;37.488;2022-07-11T00:39:02;21.00;99.90
22633;DHT22;11483;55.828;37.488;2022-07-11T00:41:28;21.10;99.90
22633;DHT22;11483;55.828;37.488;2022-07-11T00:43:59;21.20;99.90
22633;DHT22;11483;55.828;37.488;2022-07-11T00:46:26;21.20;99.90
22633;DHT22;11483;55.828;37.488;2022-07-11T00:48:52;21.20;99.90
22633;DHT22;11483;55.828;37.488;2022-07-11T00:51:20;21.30;99.90
22633;DHT22;11483;55.828;37.488;2022-07-11T00:53:51;21.30;99.90
22633;DHT22;11483;55.828;37.488;2022-07-11T00:56:19;21.30;99.90
22633;DHT22;11483;55.828;37.488;2022-07-11T00:58:47;21.30;99.90
22633;DHT22;11483;55.828;37.488;2022-07-11T01:01:13;21.30;99.90
22633;DHT22;11483;55.828;37.488;2022-07-11T01:03:39;21.30;99.90
22633;DHT22;11483;55.828;37.488;2022-07-11T01:06:08;21.20;99.90
22633;DHT22;11483;55.828;37.488;2022-07-11T01:08:34;21.20;99.90
22633;DHT22;11483;55.828;37.488;2022-07-11T01:11:05;21.20;99.90
22633;DHT22;11483;55.828;37.488;2022-07-11T01:13:35;21.10;99.90
22633;DHT22;11483;55.828;37.488;2022-07-11T01:16:12;21.10;99.90
22633;DHT22;11483;55.828;37.488;2022-07-11T01:18:43;21.20;99.90
22633;DHT22;11483;55.828;37.488;2022-07-11T01:21:36;21.30;99.90
22633;DHT22;11483;55.828;37.488;2022-07-11T01:24:06;21.40;99.90
22633;DHT22;11483;55.828;37.488;2022-07-11T01:26:32;21.50;99.90
22633;DHT22;11483;55.828;37.488;2022-07-11T01:29:09;21.60;99.90
22633;DHT22;11483;55.828;37.488;2022-07-11T01:31:38;21.60;99.90
22633;DHT22;11483;55.828;37.488;2022-07-11T01:34:04;21.60;99.90
22633;DHT22;11483;55.828;37.488;2022-07-11T01:36:31;21.60;99.90
22633;DHT22;11483;55.828;37.488;2022-07-11T01:38:56;21.70;99.90
22633;DHT22;11483;55.828;37.488;2022-07-11T01:41:22;21.60;99.90
22633;DHT22;11483;55.828;37.488;2022-07-11T01:43:48;21.50;99.90
22633;DHT22;11483;55.828;37.488;2022-07-11T01:46:14;21.50;99.90
22633;DHT22;11483;55.828;37.488;2022-07-11T01:48:45;21.40;99.90
22633;DHT22;11483;55.828;37.488;2022-07-11T01:51:11;21.40;99.90
22633;DHT22;11483;55.828;37.488;2022-07-11T01:53:37;21.50;99.90
22633;DHT22;11483;55.828;37.488;2022-07-11T01:56:03;21.50;99.90
22633;DHT22;11483;55.828;37.488;2022-07-11T01:58:28;21.50;99.90
22633;DHT22;11483;55.828;37.488;2022-07-11T02:00:56;21.50;99.90
22633;DHT22;11483;55.828;37.488;2022-07-11T02:03:23;21.50;99.90
22633;DHT22;11483;55.828;37.488;2022-07-11T02:05:49;21.60;99.90
22633;DHT22;11483;55.828;37.488;2022-07-11T02:08:14;21.60;99.90
22633;DHT22;11483;55.828;37.488;2022-07-11T02:10:43;21.70;99.90
22633;DHT22;11483;55.828;37.488;2022-07-11T02:13:10;21.70;99.90
22633;DHT22;11483;55.828;37.488;2022-07-11T02:15:37;21.80;99.90
22633;DHT22;11483;55.828;37.488;2022-07-11T02:18:03;21.80;99.90
22633;DHT22;11483;55.828;37.488;2022-07-11T02:20:29;21.80;99.90
22633;DHT22;11483;55.828;37.488;2022-07-11T02:22:55;21.70;99.90
22633;DHT22;11483;55.828;37.488;2022-07-11T02:25:22;21.60;99.90
22633;DHT22;11483;55.828;37.488;2022-07-11T02:27:48;21.60;99.90
22633;DHT22;11483;55.828;37.488;2022-07-11T02:30:14;21.50;99.90
22633;DHT22;11483;55.828;37.488;2022-07-11T02:32:40;21.40;99.90
22633;DHT22;11483;55.828;37.488;2022-07-11T02:35:06;21.30;99.90
22633;DHT22;11483;55.828;37.488;2022-07-11T02:37:32;21.30;99.90
22633;DHT22;11483;55.828;37.488;2022-07-11T02:39:58;21.40;99.90
22633;DHT22;11483;55.828;37.488;2022-07-11T02:42:23;21.20;99.90
22633;DHT22;11483;55.828;37.488;2022-07-11T02:44:49;20.90;99.90
22633;DHT22;11483;55.828;37.488;2022-07-11T02:47:15;20.80;99.90
22633;DHT22;11483;55.828;37.488;2022-07-11T02:49:41;20.80;99.90
22633;DHT22;11483;55.828;37.488;2022-07-11T02:52:07;20.80;99.90
22633;DHT22;11483;55.828;37.488;2022-07-11T02:54:33;20.80;99.90
22633;DHT22;11483;55.828;37.488;2022-07-11T02:57:00;20.70;99.90
22633;DHT22;11483;55.828;37.488;2022-07-11T02:59:26;20.60;99.90
22633;DHT22;11483;55.828;37.488;2022-07-11T03:01:52;20.60;99.90
22633;DHT22;11483;55.828;37.488;2022-07-11T03:04:18;20.50;99.90
22633;DHT22;11483;55.828;37.488;2022-07-11T03:06:44;20.80;99.90
22633;DHT22;11483;55.828;37.488;2022-07-11T03:09:10;20.80;99.90
22633;DHT22;11483;55.828;37.488;2022-07-11T03:11:36;20.80;99.90
22633;DHT22;11483;55.828;37.488;2022-07-11T03:14:02;20.80;99.90
22633;DHT22;11483;55.828;37.488;2022-07-11T03:16:29;20.70;99.90
22633;DHT22;11483;55.828;37.488;2022-07-11T03:18:56;20.80;99.90
22633;DHT22;11483;55.828;37.488;2022-07-11T03:21:23;21.00;99.90
22633;DHT22;11483;55.828;37.488;2022-07-11T03:23:50;20.90;99.90
22633;DHT22;11483;55.828;37.488;2022-07-11T03:26:18;20.90;99.90
22633;DHT22;11483;55.828;37.488;2022-07-11T03:28:44;21.00;99.90
22633;DHT22;11483;55.828;37.488;2022-07-11T03:31:10;21.00;99.90
22633;DHT22;11483;55.828;37.488;2022-07-11T03:33:36;21.00;99.90
22633;DHT22;11483;55.828;37.488;2022-07-11T03:36:03;20.90;99.90
22633;DHT22;11483;55.828;37.488;2022-07-11T03:38:29;21.00;99.90
22633;DHT22;11483;55.828;37.488;2022-07-11T03:40:55;21.00;99.90
22633;DHT22;11483;55.828;37.488;2022-07-11T03:43:22;21.10;99.90
22633;DHT22;11483;55.828;37.488;2022-07-11T03:45:48;21.00;99.90
22633;DHT22;11483;55.828;37.488;2022-07-11T03:48:14;21.30;99.90
22633;DHT22;11483;55.828;37.488;2022-07-11T03:50:40;21.40;99.90
22633;DHT22;11483;55.828;37.488;2022-07-11T03:53:06;21.50;99.90
22633;DHT22;11483;55.828;37.488;2022-07-11T03:55:32;21.80;99.90
22633;DHT22;11483;55.828;37.488;2022-07-11T03:57:58;21.90;99.90
22633;DHT22;11483;55.828;37.488;2022-07-11T04:00:24;21.90;99.90
22633;DHT22;11483;55.828;37.488;2022-07-11T04:02:50;22.00;99.90
22633;DHT22;11483;55.828;37.488;2022-07-11T04:05:16;22.00;99.90
22633;DHT22;11483;55.828;37.488;2022-07-11T04:07:42;22.10;99.90
22633;DHT22;11483;55.828;37.488;2022-07-11T04:10:09;22.30;99.90
22633;DHT22;11483;55.828;37.488;2022-07-11T04:12:35;22.30;99.90
22633;DHT22;11483;55.828;37.488;2022-07-11T04:15:01;22.30;99.90
22633;DHT22;11483;55.828;37.488;2022-07-11T04:17:27;22.50;99.90
22633;DHT22;11483;55.828;37.488;2022-07-11T04:19:54;22.40;99.90
22633;DHT22;11483;55.828;37.488;2022-07-11T04:22:20;22.60;99.90
22633;DHT22;11483;55.828;37.488;2022-07-11T04:24:46;22.80;99.90
22633;DHT22;11483;55.828;37.488;2022-07-11T04:27:12;22.90;99.90
22633;DHT22;11483;55.828;37.488;2022-07-11T04:29:37;23.10;99.90
22633;DHT22;11483;55.828;37.488;2022-07-11T04:32:03;23.30;99.90
22633;DHT22;11483;55.828;37.488;2022-07-11T04:34:29;23.40;99.90
22633;DHT22;11483;55.828;37.488;2022-07-11T04:36:55;23.60;99.90
22633;DHT22;11483;55.828;37.488;2022-07-11T04:39:21;23.70;99.90
22633;DHT22;11483;55.828;37.488;2022-07-11T04:41:47;23.70;99.90
22633;DHT22;11483;55.828;37.488;2022-07-11T04:44:12;23.80;99.90
22633;DHT22;11483;55.828;37.488;2022-07-11T04:46:38;24.00;99.90
22633;DHT22;11483;55.828;37.488;2022-07-11T04:49:04;24.00;99.90
22633;DHT22;11483;55.828;37.488;2022-07-11T04:51:30;24.20;99.90
22633;DHT22;11483;55.828;37.488;2022-07-11T04:53:56;24.30;99.90
22633;DHT22;11483;55.828;37.488;2022-07-11T04:56:22;24.30;99.90
22633;DHT22;11483;55.828;37.488;2022-07-11T04:58:48;24.30;99.90
22633;DHT22;11483;55.828;37.488;2022-07-11T05:01:14;24.30;99.90
22633;DHT22;11483;55.828;37.488;2022-07-11T05:03:40;24.30;99.90
22633;DHT22;11483;55.828;37.488;2022-07-11T05:06:07;24.10;99.90
22633;DHT22;11483;55.828;37.488;2022-07-11T05:08:33;24.10;99.90
22633;DHT22;11483;55.828;37.488;2022-07-11T05:11:02;24.00;99.90
22633;DHT22;11483;55.828;37.488;2022-07-11T05:13:29;24.00;99.90
22633;DHT22;11483;55.828;37.488;2022-07-11T05:15:55;24.00;99.90
22633;DHT22;11483;55.828;37.488;2022-07-11T05:18:21;24.10;99.90
22633;DHT22;11483;55.828;37.488;2022-07-11T05:20:47;24.30;99.90
22633;DHT22;11483;55.828;37.488;2022-07-11T05:23:14;24.30;99.90
22633;DHT22;11483;55.828;37.488;2022-07-11T05:25:41;24.20;99.90
22633;DHT22;11483;55.828;37.488;2022-07-11T05:28:07;24.30;99.90
22633;DHT22;11483;55.828;37.488;2022-07-11T05:30:33;24.50;99.90
22633;DHT22;11483;55.828;37.488;2022-07-11T05:32:59;24.40;99.90
22633;DHT22;11483;55.828;37.488;2022-07-11T05:35:25;24.30;99.90
22633;DHT22;11483;55.828;37.488;2022-07-11T05:37:51;24.10;99.90
22633;DHT22;11483;55.828;37.488;2022-07-11T05:40:18;24.20;99.90
22633;DHT22;11483;55.828;37.488;2022-07-11T05:42:43;24.40;99.90
22633;DHT22;11483;55.828;37.488;2022-07-11T05:45:10;24.30;99.90
22633;DHT22;11483;55.828;37.488;2022-07-11T05:47:36;24.50;99.90
22633;DHT22;11483;55.828;37.488;2022-07-11T05:50:01;24.40;99.90
22633;DHT22;11483;55.828;37.488;2022-07-11T05:52:27;24.50;99.90
22633;DHT22;11483;55.828;37.488;2022-07-11T05:54:53;24.60;99.90
22633;DHT22;11483;55.828;37.488;2022-07-11T05:57:20;24.70;99.90
22633;DHT22;11483;55.828;37.488;2022-07-11T05:59:45;24.70;99.90
22633;DHT22;11483;55.828;37.488;2022-07-11T06:02:12;24.80;99.90
22633;DHT22;11483;55.828;37.488;2022-07-11T06:04:38;24.90;99.90
22633;DHT22;11483;55.828;37.488;2022-07-11T06:07:05;25.10;99.90
22633;DHT22;11483;55.828;37.488;2022-07-11T06:09:31;25.30;99.90
22633;DHT22;11483;55.828;37.488;2022-07-11T06:11:57;25.20;99.90
22633;DHT22;11483;55.828;37.488;2022-07-11T06:14:23;25.20;99.90
22633;DHT22;11483;55.828;37.488;2022-07-11T06:16:50;25.10;99.90
22633;DHT22;11483;55.828;37.488;2022-07-11T06:19:16;25.30;99.90
22633;DHT22;11483;55.828;37.488;2022-07-11T06:21:42;25.60;99.90
22633;DHT22;11483;55.828;37.488;2022-07-11T06:24:08;25.70;99.90
22633;DHT22;11483;55.828;37.488;2022-07-11T06:26:34;25.80;99.90
22633;DHT22;11483;55.828;37.488;2022-07-11T06:29:00;26.10;99.90
22633;DHT22;11483;55.828;37.488;2022-07-11T06:31:26;26.20;99.90
22633;DHT22;11483;55.828;37.488;2022-07-11T06:33:52;26.20;99.90
22633;DHT22;11483;55.828;37.488;2022-07-11T06:36:24;26.20;99.90
22633;DHT22;11483;55.828;37.488;2022-07-11T06:38:50;25.90;99.90
22633;DHT22;11483;55.828;37.488;2022-07-11T06:41:16;26.10;99.90
22633;DHT22;11483;55.828;37.488;2022-07-11T06:43:42;26.10;99.90
22633;DHT22;11483;55.828;37.488;2022-07-11T06:46:08;26.40;99.90
22633;DHT22;11483;55.828;37.488;2022-07-11T06:48:34;26.50;99.90
22633;DHT22;11483;55.828;37.488;2022-07-11T06:51:00;26.50;99.90
22633;DHT22;11483;55.828;37.488;2022-07-11T06:53:26;26.70;99.90
22633;DHT22;11483;55.828;37.488;2022-07-11T06:55:52;26.60;99.90
22633;DHT22;11483;55.828;37.488;2022-07-11T06:58:18;26.70;99.90
22633;DHT22;11483;55.828;37.488;2022-07-11T07:01:04;26.70;99.90
22633;DHT22;11483;55.828;37.488;2022-07-11T07:03:31;27.00;99.90
22633;DHT22;11483;55.828;37.488;2022-07-11T07:05:58;27.30;99.90
22633;DHT22;11483;55.828;37.488;2022-07-11T07:08:25;27.50;99.90
22633;DHT22;11483;55.828;37.488;2022-07-11T07:10:52;27.60;99.90
22633;DHT22;11483;55.828;37.488;2022-07-11T07:13:19;27.50;99.90
22633;DHT22;11483;55.828;37.488;2022-07-11T07:15:49;27.40;99.90
22633;DHT22;11483;55.828;37.488;2022-07-11T07:18:15;27.50;99.90
22633;DHT22;11483;55.828;37.488;2022-07-11T07:20:41;27.60;99.90
22633;DHT22;11483;55.828;37.488;2022-07-11T07:23:07;27.90;99.90
22633;DHT22;11483;55.828;37.488;2022-07-11T07:25:33;28.00;99.90
22633;DHT22;11483;55.828;37.488;2022-07-11T07:27:59;28.10;99.90
22633;DHT22;11483;55.828;37.488;2022-07-11T07:30:25;28.30;99.90
22633;DHT22;11483;55.828;37.488;2022-07-11T07:32:51;28.40;99.90
22633;DHT22;11483;55.828;37.488;2022-07-11T07:35:17;28.10;99.90
22633;DHT22;11483;55.828;37.488;2022-07-11T07:37:42;27.90;99.90
22633;DHT22;11483;55.828;37.488;2022-07-11T07:40:08;27.90;99.90
22633;DHT22;11483;55.828;37.488;2022-07-11T07:42:34;28.10;99.90
22633;DHT22;11483;55.828;37.488;2022-07-11T07:45:00;28.20;99.90
22633;DHT22;11483;55.828;37.488;2022-07-11T07:47:26;28.50;99.90
22633;DHT22;11483;55.828;37.488;2022-07-11T07:49:53;28.40;99.90
22633;DHT22;11483;55.828;37.488;2022-07-11T07:52:19;28.50;99.90
22633;DHT22;11483;55.828;37.488;2022-07-11T07:54:45;28.80;99.90
22633;DHT22;11483;55.828;37.488;2022-07-11T07:57:12;29.00;99.90
22633;DHT22;11483;55.828;37.488;2022-07-11T07:59:38;28.90;99.90
22633;DHT22;11483;55.828;37.488;2022-07-11T08:02:04;28.90;99.90
22633;DHT22;11483;55.828;37.488;2022-07-11T08:04:30;29.10;99.90
22633;DHT22;11483;55.828;37.488;2022-07-11T08:06:56;29.00;99.90
22633;DHT22;11483;55.828;37.488;2022-07-11T08:09:25;29.40;99.90
22633;DHT22;11483;55.828;37.488;2022-07-11T08:11:51;29.80;99.90
22633;DHT22;11483;55.828;37.488;2022-07-11T08:14:16;30.00;99.90
22633;DHT22;11483;55.828;37.488;2022-07-11T08:16:42;29.80;99.90
22633;DHT22;11483;55.828;37.488;2022-07-11T08:19:08;29.90;99.90
22633;DHT22;11483;55.828;37.488;2022-07-11T08:21:35;30.30;99.90
22633;DHT22;11483;55.828;37.488;2022-07-11T08:24:02;30.30;99.90
22633;DHT22;11483;55.828;37.488;2022-07-11T08:26:28;30.50;99.90
22633;DHT22;11483;55.828;37.488;2022-07-11T08:28:54;30.50;99.90
22633;DHT22;11483;55.828;37.488;2022-07-11T08:31:20;30.90;99.90
22633;DHT22;11483;55.828;37.488;2022-07-11T08:33:46;31.00;99.90
22633;DHT22;11483;55.828;37.488;2022-07-11T08:36:11;30.70;99.90
22633;DHT22;11483;55.828;37.488;2022-07-11T08:38:38;30.70;99.90
22633;DHT22;11483;55.828;37.488;2022-07-11T08:41:05;30.80;99.90
22633;DHT22;11483;55.828;37.488;2022-07-11T08:43:31;31.10;99.90
22633;DHT22;11483;55.828;37.488;2022-07-11T08:45:59;31.50;99.90
22633;DHT22;11483;55.828;37.488;2022-07-11T08:48:26;31.50;99.90
22633;DHT22;11483;55.828;37.488;2022-07-11T08:50:53;31.70;99.90
22633;DHT22;11483;55.828;37.488;2022-07-11T08:53:18;31.80;99.90
22633;DHT22;11483;55.828;37.488;2022-07-11T08:55:45;32.00;99.90
22633;DHT22;11483;55.828;37.488;2022-07-11T08:58:13;32.20;99.90
22633;DHT22;11483;55.828;37.488;2022-07-11T09:00:39;33.40;99.90
22633;DHT22;11483;55.828;37.488;2022-07-11T09:03:07;33.60;99.90
22633;DHT22;11483;55.828;37.488;2022-07-11T09:05:33;34.50;99.90
22633;DHT22;11483;55.828;37.488;2022-07-11T09:07:59;35.80;97.60
22633;DHT22;11483;55.828;37.488;2022-07-11T09:10:24;36.70;95.00
22633;DHT22;11483;55.828;37.488;2022-07-11T09:15:37;37.80;90.00
22633;DHT22;11483;55.828;37.488;2022-07-11T09:18:05;38.50;85.80
22633;DHT22;11483;55.828;37.488;2022-07-11T09:20:55;39.10;82.10
22633;DHT22;11483;55.828;37.488;2022-07-11T09:23:41;39.40;77.00
22633;DHT22;11483;55.828;37.488;2022-07-11T09:26:34;39.00;75.60
22633;DHT22;11483;55.828;37.488;2022-07-11T09:29:10;37.90;76.50
22633;DHT22;11483;55.828;37.488;2022-07-11T09:31:37;37.10;77.30
22633;DHT22;11483;55.828;37.488;2022-07-11T09:34:05;37.10;77.80
22633;DHT22;11483;55.828;37.488;2022-07-11T09:36:48;37.00;77.20
22633;DHT22;11483;55.828;37.488;2022-07-11T09:39:22;36.90;75.40
22633;DHT22;11483;55.828;37.488;2022-07-11T09:41:51;37.50;75.10
22633;DHT22;11483;55.828;37.488;2022-07-11T09:44:27;38.30;73.80
22633;DHT22;11483;55.828;37.488;2022-07-11T09:46:55;38.40;74.30
22633;DHT22;11483;55.828;37.488;2022-07-11T09:49:38;38.30;74.50
22633;DHT22;11483;55.828;37.488;2022-07-11T09:54:58;37.20;74.10
22633;DHT22;11483;55.828;37.488;2022-07-11T09:57:39;37.20;74.40
22633;DHT22;11483;55.828;37.488;2022-07-11T10:00:09;37.70;73.60
22633;DHT22;11483;55.828;37.488;2022-07-11T10:02:37;37.30;73.60
22633;DHT22;11483;55.828;37.488;2022-07-11T10:05:04;36.90;72.50
22633;DHT22;11483;55.828;37.488;2022-07-11T10:07:31;37.50;72.50
22633;DHT22;11483;55.828;37.488;2022-07-11T10:09:58;38.40;72.00
22633;DHT22;11483;55.828;37.488;2022-07-11T10:12:25;39.10;68.90
22633;DHT22;11483;55.828;37.488;2022-07-11T10:14:53;39.40;66.80
22633;DHT22;11483;55.828;37.488;2022-07-11T10:22:43;39.40;64.80
22633;DHT22;11483;55.828;37.488;2022-07-11T10:25:46;39.40;63.40
22633;DHT22;11483;55.828;37.488;2022-07-11T10:30:50;40.10;61.30
22633;DHT22;11483;55.828;37.488;2022-07-11T10:33:17;40.10;63.00
22633;DHT22;11483;55.828;37.488;2022-07-11T10:35:45;40.50;60.50
22633;DHT22;11483;55.828;37.488;2022-07-11T10:38:12;40.60;60.20
22633;DHT22;11483;55.828;37.488;2022-07-11T10:40:46;40.80;60.10
22633;DHT22;11483;55.828;37.488;2022-07-11T10:45:53;40.00;59.40
22633;DHT22;11483;55.828;37.488;2022-07-11T10:48:19;39.70;58.50
22633;DHT22;11483;55.828;37.488;2022-07-11T10:50:46;39.60;59.00
22633;DHT22;11483;55.828;37.488;2022-07-11T10:53:21;40.00;59.30
22633;DHT22;11483;55.828;37.488;2022-07-11T10:58:41;40.00;59.70
22633;DHT22;11483;55.828;37.488;2022-07-11T11:01:16;40.20;59.10
22633;DHT22;11483;55.828;37.488;2022-07-11T11:03:43;40.70;59.20
22633;DHT22;11483;55.828;37.488;2022-07-11T11:06:09;41.10;58.20
22633;DHT22;11483;55.828;37.488;2022-07-11T11:08:40;40.90;57.50
22633;DHT22;11483;55.828;37.488;2022-07-11T11:14:17;40.70;58.00
22633;DHT22;11483;55.828;37.488;2022-07-11T11:16:44;41.00;58.20
22633;DHT22;11483;55.828;37.488;2022-07-11T11:22:16;40.10;58.80
22633;DHT22;11483;55.828;37.488;2022-07-11T11:24:43;40.50;58.60
22633;DHT22;11483;55.828;37.488;2022-07-11T11:27:20;40.60;58.80
22633;DHT22;11483;55.828;37.488;2022-07-11T11:29:48;40.90;58.00
22633;DHT22;11483;55.828;37.488;2022-07-11T11:32:15;40.80;57.40
22633;DHT22;11483;55.828;37.488;2022-07-11T11:34:41;40.80;57.50
22633;DHT22;11483;55.828;37.488;2022-07-11T11:37:08;40.80;57.80
22633;DHT22;11483;55.828;37.488;2022-07-11T11:39:35;40.60;56.40
22633;DHT22;11483;55.828;37.488;2022-07-11T11:42:11;39.60;57.10
22633;DHT22;11483;55.828;37.488;2022-07-11T11:45:05;39.40;58.00
22633;DHT22;11483;55.828;37.488;2022-07-11T11:47:35;39.50;57.40
22633;DHT22;11483;55.828;37.488;2022-07-11T11:50:03;39.60;57.40
22633;DHT22;11483;55.828;37.488;2022-07-11T11:52:29;40.10;57.40
22633;DHT22;11483;55.828;37.488;2022-07-11T11:54:58;40.60;57.60
22633;DHT22;11483;55.828;37.488;2022-07-11T11:57:27;40.70;55.40
22633;DHT22;11483;55.828;37.488;2022-07-11T11:59:53;40.30;54.90
22633;DHT22;11483;55.828;37.488;2022-07-11T12:02:26;40.00;55.00
22633;DHT22;11483;55.828;37.488;2022-07-11T12:04:52;39.30;55.70
22633;DHT22;11483;55.828;37.488;2022-07-11T12:07:27;39.00;56.00
22633;DHT22;11483;55.828;37.488;2022-07-11T12:09:54;39.70;56.30
22633;DHT22;11483;55.828;37.488;2022-07-11T12:12:28;39.60;55.10
22633;DHT22;11483;55.828;37.488;2022-07-11T12:15:24;39.00;55.50
22633;DHT22;11483;55.828;37.488;2022-07-11T12:17:56;38.90;55.90
22633;DHT22;11483;55.828;37.488;2022-07-11T12:20:42;39.10;56.10
22633;DHT22;11483;55.828;37.488;2022-07-11T12:23:12;38.90;55.80
22633;DHT22;11483;55.828;37.488;2022-07-11T12:25:38;37.80;57.20
22633;DHT22;11483;55.828;37.488;2022-07-11T12:28:05;36.90;58.30
22633;DHT22;11483;55.828;37.488;2022-07-11T12:30:33;37.10;58.70
22633;DHT22;11483;55.828;37.488;2022-07-11T12:33:10;36.40;59.20
22633;DHT22;11483;55.828;37.488;2022-07-11T12:35:36;35.70;60.10
22633;DHT22;11483;55.828;37.488;2022-07-11T12:38:17;35.40;60.90
22633;DHT22;11483;55.828;37.488;2022-07-11T12:40:56;34.80;61.50
22633;DHT22;11483;55.828;37.488;2022-07-11T12:43:37;34.80;62.60
22633;DHT22;11483;55.828;37.488;2022-07-11T12:46:21;34.90;62.70
22633;DHT22;11483;55.828;37.488;2022-07-11T12:48:49;34.80;63.00
22633;DHT22;11483;55.828;37.488;2022-07-11T12:51:34;34.70;62.90
22633;DHT22;11483;55.828;37.488;2022-07-11T12:54:01;34.90;62.50
22633;DHT22;11483;55.828;37.488;2022-07-11T12:56:27;34.80;63.60
22633;DHT22;11483;55.828;37.488;2022-07-11T12:58:53;35.10;63.90
22633;DHT22;11483;55.828;37.488;2022-07-11T13:01:19;35.40;63.40
22633;DHT22;11483;55.828;37.488;2022-07-11T13:03:44;35.10;63.00
22633;DHT22;11483;55.828;37.488;2022-07-11T13:06:10;34.60;64.70
22633;DHT22;11483;55.828;37.488;2022-07-11T13:08:36;34.20;65.00
22633;DHT22;11483;55.828;37.488;2022-07-11T13:13:43;34.60;65.20
22633;DHT22;11483;55.828;37.488;2022-07-11T13:16:09;35.30;64.90
22633;DHT22;11483;55.828;37.488;2022-07-11T13:18:35;36.10;64.60
22633;DHT22;11483;55.828;37.488;2022-07-11T13:21:01;37.10;63.00
22633;DHT22;11483;55.828;37.488;2022-07-11T13:23:27;37.90;61.70
22633;DHT22;11483;55.828;37.488;2022-07-11T13:25:54;38.40;59.80
22633;DHT22;11483;55.828;37.488;2022-07-11T13:28:20;37.60;60.70
22633;DHT22;11483;55.828;37.488;2022-07-11T13:30:46;37.40;60.60
22633;DHT22;11483;55.828;37.488;2022-07-11T13:33:13;37.50;61.40
22633;DHT22;11483;55.828;37.488;2022-07-11T13:35:39;37.90;61.20
22633;DHT22;11483;55.828;37.488;2022-07-11T13:38:05;37.70;59.80
22633;DHT22;11483;55.828;37.488;2022-07-11T13:40:30;37.90;59.80
22633;DHT22;11483;55.828;37.488;2022-07-11T13:42:59;37.80;60.20
22633;DHT22;11483;55.828;37.488;2022-07-11T13:45:26;38.10;60.60
22633;DHT22;11483;55.828;37.488;2022-07-11T13:47:53;38.30;59.70
22633;DHT22;11483;55.828;37.488;2022-07-11T13:50:18;38.70;59.80
22633;DHT22;11483;55.828;37.488;2022-07-11T13:52:47;38.30;60.00
22633;DHT22;11483;55.828;37.488;2022-07-11T13:55:18;37.40;60.20
22633;DHT22;11483;55.828;37.488;2022-07-11T13:57:45;36.50;62.60
22633;DHT22;11483;55.828;37.488;2022-07-11T14:00:11;36.10;62.90
22633;DHT22;11483;55.828;37.488;2022-07-11T14:02:37;35.70;63.90
22633;DHT22;11483;55.828;37.488;2022-07-11T14:05:04;35.20;64.70
22633;DHT22;11483;55.828;37.488;2022-07-11T14:07:30;34.90;66.30
22633;DHT22;11483;55.828;37.488;2022-07-11T14:09:55;34.60;66.30
22633;DHT22;11483;55.828;37.488;2022-07-11T14:12:21;34.40;66.20
22633;DHT22;11483;55.828;37.488;2022-07-11T14:14:47;34.00;66.00
22633;DHT22;11483;55.828;37.488;2022-07-11T14:17:13;33.80;66.70
22633;DHT22;11483;55.828;37.488;2022-07-11T14:19:39;34.00;67.00
22633;DHT22;11483;55.828;37.488;2022-07-11T14:22:06;33.90;66.90
22633;DHT22;11483;55.828;37.488;2022-07-11T14:24:33;34.10;66.20
22633;DHT22;11483;55.828;37.488;2022-07-11T14:26:59;34.10;65.40
22633;DHT22;11483;55.828;37.488;2022-07-11T14:29:25;33.60;65.30
22633;DHT22;11483;55.828;37.488;2022-07-11T14:31:52;33.50;65.60
22633;DHT22;11483;55.828;37.488;2022-07-11T14:34:20;33.60;66.20
22633;DHT22;11483;55.828;37.488;2022-07-11T14:36:46;33.50;66.40
22633;DHT22;11483;55.828;37.488;2022-07-11T14:39:13;34.10;65.60
22633;DHT22;11483;55.828;37.488;2022-07-11T14:41:40;34.40;65.10
22633;DHT22;11483;55.828;37.488;2022-07-11T14:44:06;34.40;65.00
22633;DHT22;11483;55.828;37.488;2022-07-11T14:46:32;34.10;66.00
22633;DHT22;11483;55.828;37.488;2022-07-11T14:48:58;34.00;67.20
22633;DHT22;11483;55.828;37.488;2022-07-11T14:51:24;33.80;66.40
22633;DHT22;11483;55.828;37.488;2022-07-11T14:53:55;33.80;67.30
22633;DHT22;11483;55.828;37.488;2022-07-11T14:56:22;33.70;67.10
22633;DHT22;11483;55.828;37.488;2022-07-11T14:58:48;33.80;67.30
22633;DHT22;11483;55.828;37.488;2022-07-11T15:01:13;34.60;66.80
22633;DHT22;11483;55.828;37.488;2022-07-11T15:03:39;35.40;65.40
22633;DHT22;11483;55.828;37.488;2022-07-11T15:06:11;35.90;64.60
22633;DHT22;11483;55.828;37.488;2022-07-11T15:08:37;35.70;64.30
22633;DHT22;11483;55.828;37.488;2022-07-11T15:11:22;35.70;63.50
22633;DHT22;11483;55.828;37.488;2022-07-11T15:14:07;35.60;62.90
22633;DHT22;11483;55.828;37.488;2022-07-11T15:16:36;35.30;63.10
22633;DHT22;11483;55.828;37.488;2022-07-11T15:19:04;35.10;63.60
22633;DHT22;11483;55.828;37.488;2022-07-11T15:21:31;35.60;63.30
22633;DHT22;11483;55.828;37.488;2022-07-11T15:23:58;36.00;63.70
22633;DHT22;11483;55.828;37.488;2022-07-11T15:26:24;36.20;62.30
22633;DHT22;11483;55.828;37.488;2022-07-11T15:28:51;36.10;63.10
22633;DHT22;11483;55.828;37.488;2022-07-11T15:31:17;36.20;63.00
22633;DHT22;11483;55.828;37.488;2022-07-11T15:33:43;36.50;62.40
22633;DHT22;11483;55.828;37.488;2022-07-11T15:36:13;36.70;62.00
22633;DHT22;11483;55.828;37.488;2022-07-11T15:38:39;36.30;62.80
22633;DHT22;11483;55.828;37.488;2022-07-11T15:41:05;35.70;63.50
22633;DHT22;11483;55.828;37.488;2022-07-11T15:43:32;35.80;63.00
22633;DHT22;11483;55.828;37.488;2022-07-11T15:45:58;35.90;63.10